sensor_id;sensor_type;location;lat;lon;timestamp;temperature;humidity
24560;DHT22;12727;49.934;8.656;2022-12-01T00:02:14;5.00;99.90
24560;DHT22;12727;49.934;8.656;2022-12-01T00:04:39;5.00;99.90
24560;DHT22;12727;49.934;8.656;2022-12-01T00:07:05;5.00;99.90
24560;DHT22;12727;49.934;8.656;2022-12-01T00:09:30;5.00;99.90
24560;DHT22;12727;49.934;8.656;2022-12-01T00:12:14;5.00;99.90
24560;DHT22;12727;49.934;8.656;2022-12-01T00:14:40;5.00;99.90
24560;DHT22;12727;49.934;8.656;2022-12-01T00:17:05;5.00;99.90
24560;DHT22;12727;49.934;8.656;2022-12-01T00:19:31;5.00;99.90
24560;DHT22;12727;49.934;8.656;2022-12-01T00:21:56;5.00;99.90
24560;DHT22;12727;49.934;8.656;2022-12-01T00:24:22;5.00;99.90
24560;DHT22;12727;49.934;8.656;2022-12-01T00:26:49;5.00;99.90
24560;DHT22;12727;49.934;8.656;2022-12-01T00:29:14;5.00;99.90
24560;DHT22;12727;49.934;8.656;2022-12-01T00:31:40;5.00;99.90
24560;DHT22;12727;49.934;8.656;2022-12-01T00:34:06;5.00;99.90
24560;DHT22;12727;49.934;8.656;2022-12-01T00:36:37;5.10;99.90
24560;DHT22;12727;49.934;8.656;2022-12-01T00:39:02;5.00;99.90
24560;DHT22;12727;49.934;8.656;2022-12-01T00:41:28;5.00;99.90
24560;DHT22;12727;49.934;8.656;2022-12-01T00:43:53;5.00;99.90
24560;DHT22;12727;49.934;8.656;2022-12-01T00:46:19;5.00;99.90
24560;DHT22;12727;49.934;8.656;2022-12-01T00:48:45;5.00;99.90
24560;DHT22;12727;49.934;8.656;2022-12-01T00:51:10;5.10;99.90
24560;DHT22;12727;49.934;8.656;2022-12-01T00:53:36;5.10;99.90
24560;DHT22;12727;49.934;8.656;2022-12-01T00:56:01;5.10;99.90
24560;DHT22;12727;49.934;8.656;2022-12-01T00:58:27;5.10;99.90
24560;DHT22;12727;49.934;8.656;2022-12-01T01:00:57;5.00;99.90
24560;DHT22;12727;49.934;8.656;2022-12-01T01:03:23;5.10;99.90
24560;DHT22;12727;49.934;8.656;2022-12-01T01:05:49;5.10;99.90
24560;DHT22;12727;49.934;8.656;2022-12-01T01:08:14;5.10;99.90
24560;DHT22;12727;49.934;8.656;2022-12-01T01:10:42;5.00;99.90
24560;DHT22;12727;49.934;8.656;2022-12-01T01:13:09;5.10;99.90
24560;DHT22;12727;49.934;8.656;2022-12-01T01:15:34;5.10;99.90
24560;DHT22;12727;49.934;8.656;2022-12-01T01:18:00;5.10;99.90
24560;DHT22;12727;49.934;8.656;2022-12-01T01:20:26;5.20;99.90
24560;DHT22;12727;49.934;8.656;2022-12-01T01:22:52;5.20;99.90
24560;DHT22;12727;49.934;8.656;2022-12-01T01:25:17;5.10;99.90
24560;DHT22;12727;49.934;8.656;2022-12-01T01:27:43;5.10;99.90
24560;DHT22;12727;49.934;8.656;2022-12-01T01:30:09;5.10;99.90
24560;DHT22;12727;49.934;8.656;2022-12-01T01:32:35;5.10;99.90
24560;DHT22;12727;49.934;8.656;2022-12-01T01:35:00;5.00;99.90
24560;DHT22;12727;49.934;8.656;2022-12-01T01:37:26;5.00;99.90
24560;DHT22;12727;49.934;8.656;2022-12-01T01:39:51;5.00;99.90
24560;DHT22;12727;49.934;8.656;2022-12-01T01:42:18;5.00;99.90
24560;DHT22;12727;49.934;8.656;2022-12-01T01:44:54;5.00;99.90
24560;DHT22;12727;49.934;8.656;2022-12-01T01:47:30;4.90;99.90
24560;DHT22;12727;49.934;8.656;2022-12-01T01:50:00;4.90;99.90
24560;DHT22;12727;49.934;8.656;2022-12-01T01:52:30;4.90;99.90
24560;DHT22;12727;49.934;8.656;2022-12-01T01:54:57;4.90;99.90
24560;DHT22;12727;49.934;8.656;2022-12-01T01:57:26;4.90;99.90
24560;DHT22;12727;49.934;8.656;2022-12-01T01:59:58;4.90;99.90
24560;DHT22;12727;49.934;8.656;2022-12-01T02:02:24;4.90;99.90
24560;DHT22;12727;49.934;8.656;2022-12-01T02:04:54;4.90;99.90
24560;DHT22;12727;49.934;8.656;2022-12-01T02:07:21;4.80;99.90
24560;DHT22;12727;49.934;8.656;2022-12-01T02:09:47;4.80;99.90
24560;DHT22;12727;49.934;8.656;2022-12-01T02:18:11;4.80;99.90
24560;DHT22;12727;49.934;8.656;2022-12-01T02:33:55;4.80;99.90
24560;DHT22;12727;49.934;8.656;2022-12-01T02:36:31;4.80;99.90
24560;DHT22;12727;49.934;8.656;2022-12-01T02:39:06;4.80;99.90
24560;DHT22;12727;49.934;8.656;2022-12-01T02:41:47;4.80;99.90
24560;DHT22;12727;49.934;8.656;2022-12-01T02:44:26;4.70;99.90
24560;DHT22;12727;49.934;8.656;2022-12-01T02:46:59;4.70;99.90
24560;DHT22;12727;49.934;8.656;2022-12-01T02:49:31;4.70;99.90
24560;DHT22;12727;49.934;8.656;2022-12-01T02:51:58;4.70;99.90
24560;DHT22;12727;49.934;8.656;2022-12-01T02:54:24;4.70;99.90
24560;DHT22;12727;49.934;8.656;2022-12-01T02:56:53;4.70;99.90
24560;DHT22;12727;49.934;8.656;2022-12-01T02:59:18;4.60;99.90
24560;DHT22;12727;49.934;8.656;2022-12-01T03:04:37;4.60;99.90
24560;DHT22;12727;49.934;8.656;2022-12-01T03:07:29;4.60;99.90
24560;DHT22;12727;49.934;8.656;2022-12-01T03:10:12;4.60;99.90
24560;DHT22;12727;49.934;8.656;2022-12-01T03:12:57;4.60;99.90
24560;DHT22;12727;49.934;8.656;2022-12-01T03:18:10;4.60;99.90
24560;DHT22;12727;49.934;8.656;2022-12-01T03:20:58;4.60;99.90
24560;DHT22;12727;49.934;8.656;2022-12-01T03:23:29;4.60;99.90
24560;DHT22;12727;49.934;8.656;2022-12-01T03:25:56;4.50;99.90
24560;DHT22;12727;49.934;8.656;2022-12-01T03:28:28;4.50;99.90
24560;DHT22;12727;49.934;8.656;2022-12-01T03:30:58;4.50;99.90
24560;DHT22;12727;49.934;8.656;2022-12-01T03:33:31;4.40;99.90
24560;DHT22;12727;49.934;8.656;2022-12-01T03:36:14;4.40;99.90
24560;DHT22;12727;49.934;8.656;2022-12-01T03:38:44;4.40;99.90
24560;DHT22;12727;49.934;8.656;2022-12-01T03:41:16;4.40;99.90
24560;DHT22;12727;49.934;8.656;2022-12-01T03:43:49;4.40;99.90
24560;DHT22;12727;49.934;8.656;2022-12-01T03:49:02;4.40;99.90
24560;DHT22;12727;49.934;8.656;2022-12-01T03:51:40;4.50;99.90
24560;DHT22;12727;49.934;8.656;2022-12-01T03:54:19;4.70;99.90
24560;DHT22;12727;49.934;8.656;2022-12-01T03:56:52;4.70;99.90
24560;DHT22;12727;49.934;8.656;2022-12-01T03:59:20;4.80;99.90
24560;DHT22;12727;49.934;8.656;2022-12-01T04:01:46;4.80;99.90
24560;DHT22;12727;49.934;8.656;2022-12-01T04:04:13;4.50;99.90
24560;DHT22;12727;49.934;8.656;2022-12-01T04:06:45;4.50;99.90
24560;DHT22;12727;49.934;8.656;2022-12-01T04:09:11;4.70;99.90
24560;DHT22;12727;49.934;8.656;2022-12-01T04:11:37;4.80;99.90
24560;DHT22;12727;49.934;8.656;2022-12-01T04:14:21;4.80;99.90
24560;DHT22;12727;49.934;8.656;2022-12-01T04:16:46;4.90;99.90
24560;DHT22;12727;49.934;8.656;2022-12-01T04:19:13;5.00;99.90
24560;DHT22;12727;49.934;8.656;2022-12-01T04:21:38;4.70;99.90
24560;DHT22;12727;49.934;8.656;2022-12-01T04:24:04;4.60;99.90
24560;DHT22;12727;49.934;8.656;2022-12-01T04:26:33;4.60;99.90
24560;DHT22;12727;49.934;8.656;2022-12-01T04:29:00;4.70;99.90
24560;DHT22;12727;49.934;8.656;2022-12-01T04:31:26;4.70;99.90
24560;DHT22;12727;49.934;8.656;2022-12-01T04:33:54;5.00;99.90
24560;DHT22;12727;49.934;8.656;2022-12-01T04:36:20;4.90;99.90
24560;DHT22;12727;49.934;8.656;2022-12-01T04:38:46;4.60;99.90
24560;DHT22;12727;49.934;8.656;2022-12-01T04:41:12;4.60;99.90
24560;DHT22;12727;49.934;8.656;2022-12-01T04:43:38;4.70;99.90
24560;DHT22;12727;49.934;8.656;2022-12-01T04:46:04;4.70;99.90
24560;DHT22;12727;49.934;8.656;2022-12-01T04:48:30;4.80;99.90
24560;DHT22;12727;49.934;8.656;2022-12-01T04:50:56;4.80;99.90
24560;DHT22;12727;49.934;8.656;2022-12-01T04:53:22;4.70;99.90
24560;DHT22;12727;49.934;8.656;2022-12-01T04:55:47;4.50;99.90
24560;DHT22;12727;49.934;8.656;2022-12-01T04:58:13;4.70;99.90
24560;DHT22;12727;49.934;8.656;2022-12-01T05:00:38;4.80;99.90
24560;DHT22;12727;49.934;8.656;2022-12-01T05:03:04;4.70;99.90
24560;DHT22;12727;49.934;8.656;2022-12-01T05:05:30;4.60;99.90
24560;DHT22;12727;49.934;8.656;2022-12-01T05:07:57;4.60;99.90
24560;DHT22;12727;49.934;8.656;2022-12-01T05:10:23;4.50;99.90
24560;DHT22;12727;49.934;8.656;2022-12-01T05:12:49;4.40;99.90
24560;DHT22;12727;49.934;8.656;2022-12-01T05:15:15;4.30;99.90
24560;DHT22;12727;49.934;8.656;2022-12-01T05:17:41;4.30;99.90
24560;DHT22;12727;49.934;8.656;2022-12-01T05:20:21;4.30;99.90
24560;DHT22;12727;49.934;8.656;2022-12-01T05:23:06;4.20;99.90
24560;DHT22;12727;49.934;8.656;2022-12-01T05:25:31;4.20;99.90
24560;DHT22;12727;49.934;8.656;2022-12-01T05:27:57;4.20;99.90
24560;DHT22;12727;49.934;8.656;2022-12-01T05:30:23;4.20;99.90
24560;DHT22;12727;49.934;8.656;2022-12-01T05:32:48;4.30;99.90
24560;DHT22;12727;49.934;8.656;2022-12-01T05:35:14;4.30;99.90
24560;DHT22;12727;49.934;8.656;2022-12-01T05:37:39;4.30;99.90
24560;DHT22;12727;49.934;8.656;2022-12-01T05:40:05;4.30;99.90
24560;DHT22;12727;49.934;8.656;2022-12-01T05:42:31;4.30;99.90
24560;DHT22;12727;49.934;8.656;2022-12-01T05:44:57;4.30;99.90
24560;DHT22;12727;49.934;8.656;2022-12-01T05:47:22;4.30;99.90
24560;DHT22;12727;49.934;8.656;2022-12-01T05:49:48;4.40;99.90
24560;DHT22;12727;49.934;8.656;2022-12-01T05:52:13;4.30;99.90
24560;DHT22;12727;49.934;8.656;2022-12-01T05:54:39;4.30;99.90
24560;DHT22;12727;49.934;8.656;2022-12-01T05:57:04;4.30;99.90
24560;DHT22;12727;49.934;8.656;2022-12-01T05:59:30;4.30;99.90
24560;DHT22;12727;49.934;8.656;2022-12-01T06:01:55;4.30;99.90
24560;DHT22;12727;49.934;8.656;2022-12-01T06:04:21;4.30;99.90
24560;DHT22;12727;49.934;8.656;2022-12-01T06:06:48;4.30;99.90
24560;DHT22;12727;49.934;8.656;2022-12-01T06:09:15;4.20;99.90
24560;DHT22;12727;49.934;8.656;2022-12-01T06:11:41;4.30;99.90
24560;DHT22;12727;49.934;8.656;2022-12-01T06:14:06;4.30;99.90
24560;DHT22;12727;49.934;8.656;2022-12-01T06:16:32;4.30;99.90
24560;DHT22;12727;49.934;8.656;2022-12-01T06:18:58;4.30;99.90
24560;DHT22;12727;49.934;8.656;2022-12-01T06:21:23;4.30;99.90
24560;DHT22;12727;49.934;8.656;2022-12-01T06:23:49;4.30;99.90
24560;DHT22;12727;49.934;8.656;2022-12-01T06:26:14;4.20;99.90
24560;DHT22;12727;49.934;8.656;2022-12-01T06:28:40;4.20;99.90
24560;DHT22;12727;49.934;8.656;2022-12-01T06:31:05;4.20;99.90
24560;DHT22;12727;49.934;8.656;2022-12-01T06:33:31;4.20;99.90
24560;DHT22;12727;49.934;8.656;2022-12-01T06:36:02;4.20;99.90
24560;DHT22;12727;49.934;8.656;2022-12-01T06:38:32;4.20;99.90
24560;DHT22;12727;49.934;8.656;2022-12-01T06:40:58;4.10;99.90
24560;DHT22;12727;49.934;8.656;2022-12-01T06:43:24;4.10;99.90
24560;DHT22;12727;49.934;8.656;2022-12-01T06:45:49;4.10;99.90
24560;DHT22;12727;49.934;8.656;2022-12-01T06:48:15;4.10;99.90
24560;DHT22;12727;49.934;8.656;2022-12-01T06:50:40;4.10;99.90
24560;DHT22;12727;49.934;8.656;2022-12-01T06:53:06;4.10;99.90
24560;DHT22;12727;49.934;8.656;2022-12-01T06:55:32;4.10;99.90
24560;DHT22;12727;49.934;8.656;2022-12-01T06:57:58;4.00;99.90
24560;DHT22;12727;49.934;8.656;2022-12-01T07:00:24;4.00;99.90
24560;DHT22;12727;49.934;8.656;2022-12-01T07:02:50;4.00;99.90
24560;DHT22;12727;49.934;8.656;2022-12-01T07:05:15;4.00;99.90
24560;DHT22;12727;49.934;8.656;2022-12-01T07:07:41;3.90;99.90
24560;DHT22;12727;49.934;8.656;2022-12-01T07:10:08;3.90;99.90
24560;DHT22;12727;49.934;8.656;2022-12-01T07:12:34;3.90;99.90
24560;DHT22;12727;49.934;8.656;2022-12-01T07:14:59;3.90;99.90
24560;DHT22;12727;49.934;8.656;2022-12-01T07:17:26;3.90;99.90
24560;DHT22;12727;49.934;8.656;2022-12-01T07:19:52;3.90;99.90
24560;DHT22;12727;49.934;8.656;2022-12-01T07:22:17;3.90;99.90
24560;DHT22;12727;49.934;8.656;2022-12-01T07:24:43;4.00;99.90
24560;DHT22;12727;49.934;8.656;2022-12-01T07:27:08;4.00;99.90
24560;DHT22;12727;49.934;8.656;2022-12-01T07:29:34;3.90;99.90
24560;DHT22;12727;49.934;8.656;2022-12-01T07:32:00;3.90;99.90
24560;DHT22;12727;49.934;8.656;2022-12-01T07:34:25;3.90;99.90
24560;DHT22;12727;49.934;8.656;2022-12-01T07:36:51;3.90;99.90
24560;DHT22;12727;49.934;8.656;2022-12-01T07:39:16;3.90;99.90
24560;DHT22;12727;49.934;8.656;2022-12-01T07:41:42;3.90;99.90
24560;DHT22;12727;49.934;8.656;2022-12-01T07:44:09;4.00;99.90
24560;DHT22;12727;49.934;8.656;2022-12-01T07:46:34;3.90;99.90
24560;DHT22;12727;49.934;8.656;2022-12-01T07:49:00;3.90;99.90
24560;DHT22;12727;49.934;8.656;2022-12-01T07:51:26;3.90;99.90
24560;DHT22;12727;49.934;8.656;2022-12-01T07:53:52;3.80;99.90
24560;DHT22;12727;49.934;8.656;2022-12-01T07:56:19;3.80;99.90
24560;DHT22;12727;49.934;8.656;2022-12-01T07:58:45;3.80;99.90
24560;DHT22;12727;49.934;8.656;2022-12-01T08:01:13;3.80;99.90
24560;DHT22;12727;49.934;8.656;2022-12-01T08:03:39;3.90;99.90
24560;DHT22;12727;49.934;8.656;2022-12-01T08:06:06;3.80;99.90
24560;DHT22;12727;49.934;8.656;2022-12-01T08:08:33;3.90;99.90
24560;DHT22;12727;49.934;8.656;2022-12-01T08:11:02;3.90;99.90
24560;DHT22;12727;49.934;8.656;2022-12-01T08:13:28;3.90;99.90
24560;DHT22;12727;49.934;8.656;2022-12-01T08:15:54;3.90;99.90
24560;DHT22;12727;49.934;8.656;2022-12-01T08:18:21;3.90;99.90
24560;DHT22;12727;49.934;8.656;2022-12-01T08:20:47;3.90;99.90
24560;DHT22;12727;49.934;8.656;2022-12-01T08:23:13;3.90;99.90
24560;DHT22;12727;49.934;8.656;2022-12-01T08:25:38;3.90;99.90
24560;DHT22;12727;49.934;8.656;2022-12-01T08:28:04;4.00;99.90
24560;DHT22;12727;49.934;8.656;2022-12-01T08:30:29;4.00;99.90
24560;DHT22;12727;49.934;8.656;2022-12-01T08:32:56;4.00;99.90
24560;DHT22;12727;49.934;8.656;2022-12-01T08:35:22;4.10;99.90
24560;DHT22;12727;49.934;8.656;2022-12-01T08:37:51;4.00;99.90
24560;DHT22;12727;49.934;8.656;2022-12-01T08:40:17;4.00;99.90
24560;DHT22;12727;49.934;8.656;2022-12-01T08:42:43;4.00;99.90
24560;DHT22;12727;49.934;8.656;2022-12-01T08:45:09;4.00;99.90
24560;DHT22;12727;49.934;8.656;2022-12-01T08:47:35;4.00;99.90
24560;DHT22;12727;49.934;8.656;2022-12-01T08:50:00;4.00;99.90
24560;DHT22;12727;49.934;8.656;2022-12-01T08:52:31;4.00;99.90
24560;DHT22;12727;49.934;8.656;2022-12-01T08:54:57;4.00;99.90
24560;DHT22;12727;49.934;8.656;2022-12-01T08:57:23;4.10;99.90
24560;DHT22;12727;49.934;8.656;2022-12-01T08:59:48;4.10;99.90
24560;DHT22;12727;49.934;8.656;2022-12-01T09:02:15;4.10;99.90
24560;DHT22;12727;49.934;8.656;2022-12-01T09:04:42;4.20;99.90
24560;DHT22;12727;49.934;8.656;2022-12-01T09:07:09;4.20;99.90
24560;DHT22;12727;49.934;8.656;2022-12-01T09:09:36;4.20;99.90
24560;DHT22;12727;49.934;8.656;2022-12-01T09:12:02;4.30;99.90
24560;DHT22;12727;49.934;8.656;2022-12-01T09:14:27;4.40;99.90
24560;DHT22;12727;49.934;8.656;2022-12-01T09:16:53;4.40;99.90
24560;DHT22;12727;49.934;8.656;2022-12-01T09:19:19;4.40;99.90
24560;DHT22;12727;49.934;8.656;2022-12-01T09:21:45;4.40;99.90
24560;DHT22;12727;49.934;8.656;2022-12-01T09:24:14;4.50;99.90
24560;DHT22;12727;49.934;8.656;2022-12-01T09:26:41;4.50;99.90
24560;DHT22;12727;49.934;8.656;2022-12-01T09:29:09;4.60;99.90
24560;DHT22;12727;49.934;8.656;2022-12-01T09:31:35;4.60;99.90
24560;DHT22;12727;49.934;8.656;2022-12-01T09:34:06;4.70;99.90
24560;DHT22;12727;49.934;8.656;2022-12-01T09:36:33;4.70;99.90
24560;DHT22;12727;49.934;8.656;2022-12-01T09:38:59;4.80;99.90
24560;DHT22;12727;49.934;8.656;2022-12-01T09:41:36;4.80;99.90
24560;DHT22;12727;49.934;8.656;2022-12-01T09:44:11;4.80;99.90
24560;DHT22;12727;49.934;8.656;2022-12-01T09:52:12;5.10;99.90
24560;DHT22;12727;49.934;8.656;2022-12-01T09:54:38;5.10;99.90
24560;DHT22;12727;49.934;8.656;2022-12-01T09:57:04;5.20;99.90
24560;DHT22;12727;49.934;8.656;2022-12-01T09:59:36;5.30;99.90
24560;DHT22;12727;49.934;8.656;2022-12-01T10:02:23;5.30;99.90
24560;DHT22;12727;49.934;8.656;2022-12-01T10:04:50;5.30;99.90
24560;DHT22;12727;49.934;8.656;2022-12-01T10:07:26;5.40;99.90
24560;DHT22;12727;49.934;8.656;2022-12-01T10:10:29;5.30;99.90
24560;DHT22;12727;49.934;8.656;2022-12-01T10:12:56;5.30;99.90
24560;DHT22;12727;49.934;8.656;2022-12-01T10:18:48;5.90;99.90
24560;DHT22;12727;49.934;8.656;2022-12-01T10:22:02;5.90;99.90
24560;DHT22;12727;49.934;8.656;2022-12-01T10:24:37;5.70;99.90
24560;DHT22;12727;49.934;8.656;2022-12-01T10:30:17;5.60;99.90
24560;DHT22;12727;49.934;8.656;2022-12-01T10:35:23;5.50;99.90
24560;DHT22;12727;49.934;8.656;2022-12-01T10:37:54;5.50;99.90
24560;DHT22;12727;49.934;8.656;2022-12-01T10:40:20;5.50;99.90
24560;DHT22;12727;49.934;8.656;2022-12-01T10:42:48;5.50;99.90
24560;DHT22;12727;49.934;8.656;2022-12-01T10:45:20;5.50;99.90
24560;DHT22;12727;49.934;8.656;2022-12-01T10:50:51;5.70;99.90
24560;DHT22;12727;49.934;8.656;2022-12-01T10:53:31;5.70;99.90
24560;DHT22;12727;49.934;8.656;2022-12-01T10:58:51;5.80;99.90
24560;DHT22;12727;49.934;8.656;2022-12-01T11:01:23;5.80;99.90
24560;DHT22;12727;49.934;8.656;2022-12-01T11:06:50;5.80;99.90
24560;DHT22;12727;49.934;8.656;2022-12-01T11:09:27;5.70;99.90
24560;DHT22;12727;49.934;8.656;2022-12-01T11:11:58;5.70;99.90
24560;DHT22;12727;49.934;8.656;2022-12-01T11:14:34;5.60;99.90
24560;DHT22;12727;49.934;8.656;2022-12-01T11:17:34;5.50;99.90
24560;DHT22;12727;49.934;8.656;2022-12-01T11:20:31;5.60;99.90
24560;DHT22;12727;49.934;8.656;2022-12-01T11:26:10;5.60;99.90
24560;DHT22;12727;49.934;8.656;2022-12-01T11:28:42;5.50;99.90
24560;DHT22;12727;49.934;8.656;2022-12-01T11:31:14;5.50;99.90
24560;DHT22;12727;49.934;8.656;2022-12-01T11:33:50;5.50;99.90
24560;DHT22;12727;49.934;8.656;2022-12-01T11:36:52;5.50;99.90
24560;DHT22;12727;49.934;8.656;2022-12-01T11:39:28;5.50;99.90
24560;DHT22;12727;49.934;8.656;2022-12-01T11:42:20;5.50;99.90
24560;DHT22;12727;49.934;8.656;2022-12-01T11:44:53;5.60;99.90
24560;DHT22;12727;49.934;8.656;2022-12-01T11:47:24;5.70;99.90
24560;DHT22;12727;49.934;8.656;2022-12-01T11:49:54;5.70;99.90
24560;DHT22;12727;49.934;8.656;2022-12-01T11:52:31;5.70;99.90
24560;DHT22;12727;49.934;8.656;2022-12-01T11:55:00;5.80;99.90
24560;DHT22;12727;49.934;8.656;2022-12-01T11:57:28;5.70;99.90
24560;DHT22;12727;49.934;8.656;2022-12-01T11:59:54;5.70;99.90
24560;DHT22;12727;49.934;8.656;2022-12-01T12:02:27;5.70;99.90
24560;DHT22;12727;49.934;8.656;2022-12-01T12:11:14;5.70;99.90
24560;DHT22;12727;49.934;8.656;2022-12-01T12:19:45;5.80;99.90
24560;DHT22;12727;49.934;8.656;2022-12-01T12:25:24;5.80;99.90
24560;DHT22;12727;49.934;8.656;2022-12-01T12:28:05;5.90;99.90
24560;DHT22;12727;49.934;8.656;2022-12-01T12:30:53;5.90;99.90
24560;DHT22;12727;49.934;8.656;2022-12-01T12:33:46;5.90;99.90
24560;DHT22;12727;49.934;8.656;2022-12-01T12:42:11;5.90;99.90
24560;DHT22;12727;49.934;8.656;2022-12-01T12:44:52;5.80;99.90
24560;DHT22;12727;49.934;8.656;2022-12-01T12:47:36;5.70;99.90
24560;DHT22;12727;49.934;8.656;2022-12-01T12:52:46;5.70;99.90
24560;DHT22;12727;49.934;8.656;2022-12-01T12:55:51;5.50;99.90
24560;DHT22;12727;49.934;8.656;2022-12-01T12:58:20;5.50;99.90
24560;DHT22;12727;49.934;8.656;2022-12-01T13:03:48;5.70;99.90
24560;DHT22;12727;49.934;8.656;2022-12-01T13:06:33;5.80;99.90
24560;DHT22;12727;49.934;8.656;2022-12-01T13:09:39;6.10;99.90
24560;DHT22;12727;49.934;8.656;2022-12-01T13:12:25;6.20;99.90
24560;DHT22;12727;49.934;8.656;2022-12-01T13:14:55;6.40;99.90
24560;DHT22;12727;49.934;8.656;2022-12-01T13:19:52;6.50;99.90
24560;DHT22;12727;49.934;8.656;2022-12-01T13:22:20;6.40;99.90
24560;DHT22;12727;49.934;8.656;2022-12-01T13:24:48;6.30;99.90
24560;DHT22;12727;49.934;8.656;2022-12-01T13:27:22;6.30;99.90
24560;DHT22;12727;49.934;8.656;2022-12-01T13:29:51;6.30;99.90
24560;DHT22;12727;49.934;8.656;2022-12-01T13:32:38;6.20;99.90
24560;DHT22;12727;49.934;8.656;2022-12-01T13:35:16;6.10;99.90
24560;DHT22;12727;49.934;8.656;2022-12-01T13:37:45;6.00;99.90
24560;DHT22;12727;49.934;8.656;2022-12-01T13:40:26;6.00;99.90
24560;DHT22;12727;49.934;8.656;2022-12-01T13:43:00;6.10;99.90
24560;DHT22;12727;49.934;8.656;2022-12-01T13:45:31;6.10;99.90
24560;DHT22;12727;49.934;8.656;2022-12-01T13:47:59;6.10;99.90
24560;DHT22;12727;49.934;8.656;2022-12-01T13:50:59;6.10;99.90
24560;DHT22;12727;49.934;8.656;2022-12-01T13:53:36;6.00;99.90
24560;DHT22;12727;49.934;8.656;2022-12-01T13:56:04;6.10;99.90
24560;DHT22;12727;49.934;8.656;2022-12-01T14:09:00;6.00;99.90
24560;DHT22;12727;49.934;8.656;2022-12-01T14:11:29;6.00;99.90
24560;DHT22;12727;49.934;8.656;2022-12-01T14:16:55;6.00;99.90
24560;DHT22;12727;49.934;8.656;2022-12-01T14:19:45;6.00;99.90
24560;DHT22;12727;49.934;8.656;2022-12-01T14:22:38;6.00;99.90
24560;DHT22;12727;49.934;8.656;2022-12-01T14:25:26;6.00;99.90
24560;DHT22;12727;49.934;8.656;2022-12-01T14:27:56;6.10;99.90
24560;DHT22;12727;49.934;8.656;2022-12-01T14:33:44;6.00;99.90
24560;DHT22;12727;49.934;8.656;2022-12-01T14:39:03;5.90;99.90
24560;DHT22;12727;49.934;8.656;2022-12-01T14:41:51;5.90;99.90
24560;DHT22;12727;49.934;8.656;2022-12-01T14:49:46;6.00;99.90
24560;DHT22;12727;49.934;8.656;2022-12-01T14:52:36;5.90;99.90
24560;DHT22;12727;49.934;8.656;2022-12-01T14:55:13;5.90;99.90
24560;DHT22;12727;49.934;8.656;2022-12-01T14:57:51;5.90;99.90
24560;DHT22;12727;49.934;8.656;2022-12-01T15:00:21;5.90;99.90
24560;DHT22;12727;49.934;8.656;2022-12-01T15:02:53;6.00;99.90
24560;DHT22;12727;49.934;8.656;2022-12-01T15:05:24;5.90;99.90
24560;DHT22;12727;49.934;8.656;2022-12-01T15:07:53;5.70;99.90
24560;DHT22;12727;49.934;8.656;2022-12-01T15:12:52;5.70;99.90
24560;DHT22;12727;49.934;8.656;2022-12-01T15:15:19;5.70;99.90
24560;DHT22;12727;49.934;8.656;2022-12-01T15:17:45;5.70;99.90
24560;DHT22;12727;49.934;8.656;2022-12-01T15:20:32;5.70;99.90
24560;DHT22;12727;49.934;8.656;2022-12-01T15:23:00;5.70;99.90
24560;DHT22;12727;49.934;8.656;2022-12-01T15:25:29;5.60;99.90
24560;DHT22;12727;49.934;8.656;2022-12-01T15:28:18;5.70;99.90
24560;DHT22;12727;49.934;8.656;2022-12-01T15:30:52;5.50;99.90
24560;DHT22;12727;49.934;8.656;2022-12-01T15:33:30;5.40;99.90
24560;DHT22;12727;49.934;8.656;2022-12-01T15:35:57;5.40;99.90
24560;DHT22;12727;49.934;8.656;2022-12-01T15:38:31;5.30;99.90
24560;DHT22;12727;49.934;8.656;2022-12-01T15:40:58;5.30;99.90
24560;DHT22;12727;49.934;8.656;2022-12-01T15:43:31;5.40;99.90
24560;DHT22;12727;49.934;8.656;2022-12-01T15:46:09;5.30;99.90
24560;DHT22;12727;49.934;8.656;2022-12-01T15:48:35;5.30;99.90
24560;DHT22;12727;49.934;8.656;2022-12-01T15:51:25;5.20;99.90
24560;DHT22;12727;49.934;8.656;2022-12-01T15:53:54;5.10;99.90
24560;DHT22;12727;49.934;8.656;2022-12-01T15:56:34;5.20;99.90
24560;DHT22;12727;49.934;8.656;2022-12-01T16:01:40;5.40;99.90
24560;DHT22;12727;49.934;8.656;2022-12-01T16:04:25;5.30;99.90
24560;DHT22;12727;49.934;8.656;2022-12-01T16:07:12;5.10;99.90
24560;DHT22;12727;49.934;8.656;2022-12-01T16:09:40;5.10;99.90
24560;DHT22;12727;49.934;8.656;2022-12-01T16:15:13;4.90;99.90
24560;DHT22;12727;49.934;8.656;2022-12-01T16:17:42;4.90;99.90
24560;DHT22;12727;49.934;8.656;2022-12-01T16:20:38;4.90;99.90
24560;DHT22;12727;49.934;8.656;2022-12-01T16:23:13;4.90;99.90
24560;DHT22;12727;49.934;8.656;2022-12-01T16:25:42;4.90;99.90
24560;DHT22;12727;49.934;8.656;2022-12-01T16:30:46;5.00;99.90
24560;DHT22;12727;49.934;8.656;2022-12-01T16:33:25;5.00;99.90
24560;DHT22;12727;49.934;8.656;2022-12-01T16:35:52;5.00;99.90
24560;DHT22;12727;49.934;8.656;2022-12-01T16:38:22;4.90;99.90
24560;DHT22;12727;49.934;8.656;2022-12-01T16:40:50;4.90;99.90
24560;DHT22;12727;49.934;8.656;2022-12-01T16:43:21;4.90;99.90
24560;DHT22;12727;49.934;8.656;2022-12-01T16:45:47;4.90;99.90
24560;DHT22;12727;49.934;8.656;2022-12-01T16:48:20;4.80;99.90
24560;DHT22;12727;49.934;8.656;2022-12-01T16:50:47;4.80;99.90
24560;DHT22;12727;49.934;8.656;2022-12-01T16:53:13;4.90;99.90
24560;DHT22;12727;49.934;8.656;2022-12-01T16:55:50;4.80;99.90
24560;DHT22;12727;49.934;8.656;2022-12-01T16:58:16;4.80;99.90
24560;DHT22;12727;49.934;8.656;2022-12-01T17:00:42;4.80;99.90
24560;DHT22;12727;49.934;8.656;2022-12-01T17:03:10;4.80;99.90
24560;DHT22;12727;49.934;8.656;2022-12-01T17:05:37;4.80;99.90
24560;DHT22;12727;49.934;8.656;2022-12-01T17:08:03;4.80;99.90
24560;DHT22;12727;49.934;8.656;2022-12-01T17:10:29;4.80;99.90
24560;DHT22;12727;49.934;8.656;2022-12-01T17:12:55;4.70;99.90
24560;DHT22;12727;49.934;8.656;2022-12-01T17:15:20;4.80;99.90
24560;DHT22;12727;49.934;8.656;2022-12-01T17:17:46;4.80;99.90
24560;DHT22;12727;49.934;8.656;2022-12-01T17:20:12;4.70;99.90
24560;DHT22;12727;49.934;8.656;2022-12-01T17:22:38;4.70;99.90
24560;DHT22;12727;49.934;8.656;2022-12-01T17:25:04;4.70;99.90
24560;DHT22;12727;49.934;8.656;2022-12-01T17:27:30;4.70;99.90
24560;DHT22;12727;49.934;8.656;2022-12-01T17:29:56;4.70;99.90
24560;DHT22;12727;49.934;8.656;2022-12-01T17:32:24;4.70;99.90
24560;DHT22;12727;49.934;8.656;2022-12-01T17:34:50;4.70;99.90
24560;DHT22;12727;49.934;8.656;2022-12-01T17:37:15;4.70;99.90
24560;DHT22;12727;49.934;8.656;2022-12-01T17:39:41;4.70;99.90
24560;DHT22;12727;49.934;8.656;2022-12-01T17:42:06;4.60;99.90
24560;DHT22;12727;49.934;8.656;2022-12-01T17:44:32;4.60;99.90
24560;DHT22;12727;49.934;8.656;2022-12-01T17:46:58;4.60;99.90
24560;DHT22;12727;49.934;8.656;2022-12-01T17:49:24;4.70;99.90
24560;DHT22;12727;49.934;8.656;2022-12-01T17:51:49;4.60;99.90
24560;DHT22;12727;49.934;8.656;2022-12-01T17:54:15;4.70;99.90
24560;DHT22;12727;49.934;8.656;2022-12-01T17:56:41;4.70;99.90
24560;DHT22;12727;49.934;8.656;2022-12-01T17:59:07;4.70;99.90
24560;DHT22;12727;49.934;8.656;2022-12-01T18:01:32;4.70;99.90
24560;DHT22;12727;49.934;8.656;2022-12-01T18:03:58;4.70;99.90